createdAt,value
2019-05-05T00:04:16.487Z,6.83
2019-05-05T00:09:21.876Z,8.00
2019-05-05T00:14:57.357Z,8.70
2019-05-05T00:20:05.138Z,8.20
2019-05-05T00:25:11.500Z,8.50
2019-05-05T00:30:17.503Z,8.65
2019-05-05T00:35:22.775Z,8.45
2019-05-05T00:40:28.436Z,9.18
2019-05-05T00:45:35.073Z,9.68
2019-05-05T00:50:41.805Z,10.88
2019-05-05T00:55:47.199Z,12.50
2019-05-05T01:01:06.804Z,13.85
2019-05-05T01:06:21.170Z,15.13
2019-05-05T01:11:26.760Z,15.75
2019-05-05T01:16:32.459Z,16.90
2019-05-05T01:21:40.297Z,18.92
2019-05-05T01:26:48.224Z,19.45
2019-05-05T01:31:56.236Z,20.70
2019-05-05T01:37:08.175Z,23.67
2019-05-05T01:42:18.486Z,24.52
2019-05-05T01:47:25.521Z,25.10
2019-05-05T01:52:34.460Z,27.62
2019-05-05T01:57:44.956Z,27.40
2019-05-05T02:02:50.729Z,27.02
2019-05-05T02:07:56.992Z,27.53
2019-05-05T02:13:04.638Z,26.70
2019-05-05T02:18:10.654Z,27.77
2019-05-05T02:23:17.246Z,27.03
2019-05-05T02:28:24.166Z,26.00
2019-05-05T02:33:29.519Z,25.10
2019-05-05T02:38:35.681Z,24.37
2019-05-05T02:43:44.800Z,22.37
2019-05-05T02:48:50.860Z,21.68
2019-05-05T02:53:58.934Z,21.50
2019-05-05T02:59:08.081Z,20.60
2019-05-05T03:04:14.292Z,20.15
2019-05-05T03:09:21.691Z,20.12
2019-05-05T03:14:29.728Z,20.30
2019-05-05T03:19:35.211Z,20.47
2019-05-05T03:24:41.058Z,20.27
2019-05-05T03:29:47.155Z,18.65
2019-05-05T03:34:53.724Z,19.73
2019-05-05T03:40:06.727Z,20.72
2019-05-05T03:45:26.303Z,19.50
2019-05-05T03:50:33.988Z,21.15
2019-05-05T03:55:39.140Z,20.30
2019-05-05T04:01:20.598Z,21.93
2019-05-05T04:06:38.941Z,21.40
2019-05-05T04:11:45.531Z,21.90
2019-05-05T04:17:19.112Z,22.73
2019-05-05T04:22:24.447Z,23.65
2019-05-05T04:27:29.722Z,22.93
2019-05-05T04:32:35.217Z,22.70
2019-05-05T04:37:40.528Z,21.97
2019-05-05T04:42:45.969Z,22.00
2019-05-05T04:47:55.450Z,22.27
2019-05-05T04:53:02.074Z,23.45
2019-05-05T04:58:07.534Z,34.33
2019-05-05T05:03:36.750Z,35.85
2019-05-05T05:08:44.187Z,34.43
2019-05-05T05:13:49.617Z,37.58
2019-05-05T05:18:55.957Z,32.13
2019-05-05T05:24:03.867Z,29.72
2019-05-05T05:29:09.328Z,27.80
2019-05-05T05:34:14.978Z,27.05
2019-05-05T05:39:48.607Z,26.55
2019-05-05T05:45:19.211Z,25.97
2019-05-05T05:50:44.430Z,24.30
2019-05-05T05:55:49.759Z,23.87
2019-05-05T06:00:56.826Z,25.83
2019-05-05T06:06:02.154Z,27.17
2019-05-05T06:11:07.994Z,27.90
2019-05-05T06:16:14.569Z,28.32
2019-05-05T06:21:20.041Z,29.13
2019-05-05T06:26:25.457Z,28.37
2019-05-05T06:31:30.678Z,28.57
2019-05-05T06:36:36.281Z,28.85
2019-05-05T06:42:05.937Z,30.03
2019-05-05T06:47:23.705Z,31.70
2019-05-05T06:52:41.990Z,30.45
2019-05-05T06:57:36.743Z,32.25
2019-05-05T07:02:44.478Z,31.95
2019-05-05T07:07:49.955Z,31.68
2019-05-05T07:12:56.344Z,31.62
2019-05-05T07:18:03.574Z,30.97
2019-05-05T07:23:08.793Z,30.68
2019-05-05T07:28:14.832Z,31.40
2019-05-05T07:33:20.542Z,31.45
2019-05-05T07:38:26.362Z,27.13
2019-05-05T07:43:31.647Z,29.30
2019-05-05T07:48:37.120Z,31.93
2019-05-05T07:53:44.239Z,29.35
2019-05-05T07:58:49.495Z,29.80
2019-05-05T08:03:54.836Z,30.43
2019-05-05T08:09:00.207Z,30.97
2019-05-05T08:14:05.618Z,29.33
2019-05-05T08:19:45.279Z,28.95
2019-05-05T08:25:03.893Z,27.63
2019-05-05T08:30:24.296Z,24.87
2019-05-05T08:35:29.108Z,22.25
2019-05-05T08:40:34.757Z,22.37
2019-05-05T08:45:40.119Z,20.50
2019-05-05T08:50:45.909Z,20.52
2019-05-05T08:55:51.262Z,19.50
2019-05-05T09:00:56.643Z,18.30
2019-05-05T09:06:01.935Z,19.33
2019-05-05T09:11:07.468Z,15.55
2019-05-05T09:16:14.475Z,16.02
2019-05-05T09:21:19.998Z,15.88
2019-05-05T09:26:47.459Z,17.60
2019-05-05T09:31:54.061Z,16.20
2019-05-05T09:37:03.659Z,13.87
2019-05-05T09:42:09.337Z,16.80
2019-05-05T09:47:16.142Z,14.70
2019-05-05T09:52:21.567Z,16.45
2019-05-05T09:57:27.285Z,14.63
2019-05-05T10:02:34.513Z,12.03
2019-05-05T10:07:40.231Z,15.70
2019-05-05T10:12:45.596Z,15.00
2019-05-05T10:17:51.002Z,14.13
2019-05-05T10:22:56.481Z,16.75
2019-05-05T10:28:04.016Z,14.50
2019-05-05T10:33:08.781Z,13.03
2019-05-05T10:38:14.518Z,12.28
2019-05-05T10:43:19.819Z,12.58
2019-05-05T10:48:25.169Z,9.73
2019-05-05T10:53:30.398Z,12.35
2019-05-05T10:58:36.428Z,11.80
2019-05-05T11:03:44.500Z,10.88
2019-05-05T11:08:49.488Z,6.42
2019-05-05T11:13:54.934Z,4.33
2019-05-05T11:19:00.732Z,5.20
2019-05-05T11:24:06.111Z,6.33
2019-05-05T11:29:13.059Z,7.30
2019-05-05T11:34:26.717Z,6.50
2019-05-05T11:39:34.029Z,7.47
2019-05-05T11:44:39.495Z,6.90
2019-05-05T11:49:44.802Z,7.15
2019-05-05T11:54:50.288Z,7.75
2019-05-05T11:59:55.718Z,5.37
2019-05-05T12:05:01.129Z,5.83
2019-05-05T12:10:08.543Z,5.92
2019-05-05T12:15:13.910Z,4.53
2019-05-05T12:20:24.113Z,6.53
2019-05-05T12:25:57.641Z,4.97
2019-05-05T12:31:05.402Z,5.85
2019-05-05T12:36:11.064Z,6.22
2019-05-05T12:41:16.434Z,4.87
2019-05-05T12:46:59.318Z,5.57
2019-05-05T12:52:04.719Z,8.60
2019-05-05T12:57:10.969Z,10.32
2019-05-05T13:02:16.350Z,11.78
2019-05-05T13:07:23.809Z,13.50
2019-05-05T13:12:29.103Z,13.53
2019-05-05T13:17:34.445Z,11.63
2019-05-05T13:23:00.592Z,8.13
2019-05-05T13:28:06.365Z,6.60
2019-05-05T13:33:14.028Z,6.47
2019-05-05T13:38:18.848Z,7.40
2019-05-05T13:43:24.119Z,8.93
2019-05-05T13:48:29.354Z,7.95
2019-05-05T13:53:34.639Z,6.60
2019-05-05T13:58:40.069Z,6.53
2019-05-05T14:03:47.011Z,6.03
2019-05-05T14:08:54.122Z,7.95
2019-05-05T14:13:59.589Z,6.87
2019-05-05T14:19:04.870Z,6.97
2019-05-05T14:24:23.223Z,13.90
2019-05-05T14:29:46.731Z,7.53
2019-05-05T14:35:10.242Z,7.05
2019-05-05T14:40:16.142Z,8.40
2019-05-05T14:45:23.530Z,8.40
2019-05-05T14:50:28.883Z,8.28
2019-05-05T14:55:34.120Z,6.10
2019-05-05T15:00:39.578Z,6.63
2019-05-05T15:06:15.390Z,6.08
2019-05-05T15:11:37.881Z,6.80
2019-05-05T15:16:44.125Z,5.72
2019-05-05T15:21:49.374Z,6.57
2019-05-05T15:26:55.275Z,8.20
2019-05-05T15:32:01.001Z,7.50
2019-05-05T15:37:06.585Z,5.67
2019-05-05T15:42:11.809Z,6.10
2019-05-05T15:47:18.018Z,7.97
2019-05-05T15:52:24.331Z,7.65
2019-05-05T15:57:30.042Z,6.20
2019-05-05T16:02:36.176Z,8.03
2019-05-05T16:07:41.474Z,8.78
2019-05-05T16:12:47.139Z,8.50
2019-05-05T16:18:17.091Z,7.62
2019-05-05T16:23:26.471Z,10.18
2019-05-05T16:28:31.690Z,8.53
2019-05-05T16:33:36.914Z,9.55
2019-05-05T16:38:43.588Z,7.72
2019-05-05T16:43:50.008Z,9.85
2019-05-05T16:48:55.350Z,9.18
2019-05-05T16:54:04.710Z,8.60
2019-05-05T16:59:09.954Z,10.72
2019-05-05T17:04:15.294Z,9.83
2019-05-05T17:09:20.744Z,8.00
2019-05-05T17:14:33.996Z,9.20
2019-05-05T17:19:51.510Z,10.43
2019-05-05T17:24:58.664Z,8.65
2019-05-05T17:30:05.029Z,8.60
2019-05-05T17:35:11.566Z,8.38
2019-05-05T17:40:35.914Z,10.07
2019-05-05T17:46:00.754Z,5.83
2019-05-05T17:51:19.929Z,6.72
2019-05-05T17:56:25.304Z,16.95
2019-05-05T18:01:31.075Z,7.97
2019-05-05T18:06:44.803Z,8.85
2019-05-05T18:12:04.349Z,13.05
2019-05-05T18:17:10.012Z,8.08
2019-05-05T18:22:15.355Z,8.48
2019-05-05T18:27:21.016Z,10.65
2019-05-05T18:32:26.360Z,9.95
2019-05-05T18:37:31.671Z,9.33
2019-05-05T18:42:37.427Z,10.45
2019-05-05T18:47:43.545Z,10.55
2019-05-05T18:52:49.819Z,9.60
2019-05-05T18:57:56.534Z,9.23
2019-05-05T19:03:17.681Z,10.15
2019-05-05T19:08:25.485Z,8.63
2019-05-05T19:13:31.172Z,9.60
2019-05-05T19:18:36.973Z,11.18
2019-05-05T19:23:42.264Z,11.10
2019-05-05T19:28:50.257Z,10.33
2019-05-05T19:33:55.880Z,14.18
2019-05-05T19:39:04.087Z,9.28
2019-05-05T19:44:11.545Z,9.98
2019-05-05T19:49:17.771Z,10.80
2019-05-05T19:54:23.318Z,10.82
2019-05-05T19:59:30.212Z,11.83
2019-05-05T20:04:35.895Z,13.05
2019-05-05T20:09:43.653Z,11.73
2019-05-05T20:14:49.120Z,12.60
2019-05-05T20:19:54.769Z,20.10
2019-05-05T20:25:00.377Z,20.90
2019-05-05T20:30:07.015Z,13.30
2019-05-05T20:35:29.464Z,13.70
2019-05-05T20:40:37.024Z,12.43
2019-05-05T20:45:44.271Z,9.80
2019-05-05T20:50:49.375Z,10.32
2019-05-05T20:55:54.816Z,11.07
2019-05-05T21:01:01.330Z,9.05
2019-05-05T21:06:06.772Z,9.48
2019-05-05T21:11:14.116Z,11.55
2019-05-05T21:16:19.397Z,9.30
2019-05-05T21:21:27.353Z,10.20
2019-05-05T21:26:50.566Z,12.87
2019-05-05T21:31:55.809Z,14.43
2019-05-05T21:37:01.463Z,13.90
2019-05-05T21:42:07.258Z,13.13
2019-05-05T21:47:14.694Z,12.60
2019-05-05T21:52:38.840Z,12.75
2019-05-05T21:58:25.167Z,13.30
2019-05-05T22:03:34.830Z,12.80
2019-05-05T22:08:40.799Z,14.27
2019-05-05T22:13:46.117Z,12.88
2019-05-05T22:18:54.044Z,11.87
2019-05-05T22:24:17.870Z,11.43
2019-05-05T22:29:24.848Z,13.22
2019-05-05T22:34:30.833Z,10.75
2019-05-05T22:39:36.162Z,11.93
2019-05-05T22:44:41.713Z,11.30
2019-05-05T22:49:47.070Z,13.67
2019-05-05T22:54:52.305Z,13.35
2019-05-05T22:59:57.694Z,10.78
2019-05-05T23:05:09.657Z,11.37
2019-05-05T23:10:15.086Z,10.32
2019-05-05T23:15:21.050Z,12.03
2019-05-05T23:20:50.542Z,11.48
2019-05-05T23:25:56.836Z,10.28
2019-05-05T23:31:02.129Z,10.05
2019-05-05T23:36:09.282Z,12.82
2019-05-05T23:41:14.750Z,13.00
2019-05-05T23:46:20.116Z,13.08
2019-05-05T23:51:25.554Z,12.50
2019-05-05T23:56:30.817Z,12.50
